createdAt,value
2023-05-21T00:00:34.537Z,102503.09
2023-05-21T00:01:36.669Z,102507.50
2023-05-21T00:02:39.628Z,102496.00
2023-05-21T00:03:42.951Z,102505.81
2023-05-21T00:04:45.762Z,102505.09
2023-05-21T00:05:47.814Z,102499.69
2023-05-21T00:06:50.801Z,102500.69
2023-05-21T00:07:55.003Z,102505.25
2023-05-21T00:08:57.098Z,102498.28
2023-05-21T00:09:59.045Z,102507.09
2023-05-21T00:11:01.154Z,102505.38
2023-05-21T00:12:03.116Z,102507.38
2023-05-21T00:13:04.969Z,102503.69
2023-05-21T00:14:06.801Z,102511.91
2023-05-21T00:15:09.356Z,102503.97
2023-05-21T00:16:11.399Z,102489.75
2023-05-21T00:17:13.400Z,102509.50
2023-05-21T00:18:16.323Z,102498.84
2023-05-21T00:19:18.197Z,102505.97
2023-05-21T00:20:20.192Z,102504.25
2023-05-21T00:21:23.203Z,102507.06
2023-05-21T00:22:25.095Z,102503.53
2023-05-21T00:23:26.957Z,102502.66
2023-05-21T00:24:29.445Z,102507.25
2023-05-21T00:25:31.633Z,102497.44
2023-05-21T00:26:33.482Z,102503.81
2023-05-21T00:27:35.678Z,102502.13
2023-05-21T00:28:37.520Z,102505.81
2023-05-21T00:29:41.338Z,102514.75
2023-05-21T00:30:44.377Z,102506.81
2023-05-21T00:31:46.267Z,102508.63
2023-05-21T00:32:48.149Z,102510.50
2023-05-21T00:33:50.786Z,102506.09
2023-05-21T00:34:52.628Z,102514.19
2023-05-21T00:35:57.668Z,102511.63
2023-05-21T00:36:59.509Z,102517.91
2023-05-21T00:38:01.598Z,102503.69
2023-05-21T00:39:04.450Z,102501.38
2023-05-21T00:40:11.592Z,102505.09
2023-05-21T00:41:13.784Z,102508.22
2023-05-21T00:42:18.253Z,102498.81
2023-05-21T00:43:20.491Z,102511.03
2023-05-21T00:44:23.795Z,102514.72
2023-05-21T00:45:25.786Z,102501.50
2023-05-21T00:46:30.493Z,102507.91
2023-05-21T00:47:32.802Z,102515.88
2023-05-21T00:48:35.231Z,102502.50
2023-05-21T00:49:37.130Z,102518.69
2023-05-21T00:50:42.325Z,102504.78
2023-05-21T00:51:45.327Z,102506.19
2023-05-21T00:52:48.902Z,102516.16
2023-05-21T00:53:52.974Z,102514.44
2023-05-21T00:54:55.561Z,102504.78
2023-05-21T00:55:57.850Z,102507.34
2023-05-21T00:57:01.602Z,102510.31
2023-05-21T00:58:04.644Z,102512.88
2023-05-21T00:59:06.514Z,102508.47
2023-05-21T01:00:10.851Z,102507.75
2023-05-21T01:01:14.104Z,102508.63
2023-05-21T01:02:18.227Z,102511.31
2023-05-21T01:03:20.572Z,102507.75
2023-05-21T01:04:23.935Z,102507.03
2023-05-21T01:05:25.959Z,102509.91
2023-05-21T01:06:34.650Z,102510.72
2023-05-21T01:07:39.927Z,102503.50
2023-05-21T01:08:42.247Z,102500.81
2023-05-21T01:09:44.246Z,102506.34
2023-05-21T01:10:46.312Z,102506.50
2023-05-21T01:11:51.291Z,102503.91
2023-05-21T01:12:54.643Z,102508.31
2023-05-21T01:13:57.671Z,102503.03
2023-05-21T01:15:04.150Z,102504.03
2023-05-21T01:16:09.488Z,102509.31
2023-05-21T01:17:13.076Z,102502.19
2023-05-21T01:18:16.094Z,102504.19
2023-05-21T01:19:23.847Z,102506.16
2023-05-21T01:20:26.759Z,102489.91
2023-05-21T01:21:30.446Z,102505.19
2023-05-21T01:22:35.340Z,102506.03
2023-05-21T01:23:37.283Z,102502.47
2023-05-21T01:24:39.355Z,102506.16
2023-05-21T01:25:42.349Z,102514.41
2023-05-21T01:26:46.773Z,102508.16
2023-05-21T01:27:49.037Z,102506.41
2023-05-21T01:28:51.699Z,102505.56
2023-05-21T01:29:53.555Z,102512.81
2023-05-21T01:30:58.753Z,102505.72
2023-05-21T01:32:31.552Z,102513.56
2023-05-21T01:33:41.931Z,102506.03
2023-05-21T01:35:01.324Z,102507.59
2023-05-21T01:36:06.056Z,102509.59
2023-05-21T01:37:17.552Z,102510.84
2023-05-21T01:38:41.399Z,102506.88
2023-05-21T01:39:48.161Z,102512.41
2023-05-21T01:41:03.647Z,102508.16
2023-05-21T01:42:10.313Z,102508.25
2023-05-21T01:43:13.170Z,102511.94
2023-05-21T01:44:18.956Z,102515.06
2023-05-21T01:45:23.658Z,102516.91
2023-05-21T01:46:29.129Z,102509.25
2023-05-21T01:47:32.132Z,102519.75
2023-05-21T01:48:35.184Z,102507.53
2023-05-21T01:49:37.717Z,102510.06
2023-05-21T01:50:41.713Z,102518.31
2023-05-21T01:51:44.073Z,102516.47
2023-05-21T01:52:51.133Z,102506.50
2023-05-21T01:53:52.963Z,102512.94
2023-05-21T01:54:57.340Z,102513.16
2023-05-21T01:55:59.482Z,102513.91
2023-05-21T01:57:01.751Z,102514.03
2023-05-21T01:58:03.614Z,102518.56
2023-05-21T01:59:05.954Z,102521.25
2023-05-21T02:00:09.005Z,102516.84
2023-05-21T02:01:17.169Z,102518.44
2023-05-21T02:02:19.463Z,102513.16
2023-05-21T02:03:22.018Z,102515.16
2023-05-21T02:04:24.115Z,102515.16
2023-05-21T02:05:26.239Z,102512.72
2023-05-21T02:06:28.129Z,102508.91
2023-05-21T02:07:32.663Z,102519.84
2023-05-21T02:08:36.188Z,102517.03
2023-05-21T02:09:38.181Z,102517.13
2023-05-21T02:10:40.111Z,102512.72
2023-05-21T02:11:42.008Z,102514.72
2023-05-21T02:12:43.884Z,102505.63
2023-05-21T02:13:46.283Z,102508.34
2023-05-21T02:14:50.480Z,102507.63
2023-05-21T02:15:55.159Z,102513.72
2023-05-21T02:16:58.305Z,102509.31
2023-05-21T02:18:00.652Z,102504.91
2023-05-21T02:19:04.781Z,102509.31
2023-05-21T02:20:16.567Z,102506.78
2023-05-21T02:21:18.501Z,102505.50
2023-05-21T02:22:20.297Z,102506.50
2023-05-21T02:23:22.198Z,102510.31
2023-05-21T02:24:24.521Z,102505.19
2023-05-21T02:25:26.397Z,102513.16
2023-05-21T02:26:29.042Z,102480.00
2023-05-21T02:27:32.562Z,102512.28
2023-05-21T02:28:36.167Z,102506.06
2023-05-21T02:29:38.048Z,102515.97
2023-05-21T02:30:39.896Z,102505.19
2023-05-21T02:31:42.049Z,102503.47
2023-05-21T02:32:45.085Z,102508.03
2023-05-21T02:33:47.114Z,102510.75
2023-05-21T02:34:48.967Z,102502.66
2023-05-21T02:35:51.062Z,102507.16
2023-05-21T02:36:52.862Z,102495.22
2023-05-21T02:37:59.008Z,102505.47
2023-05-21T02:39:01.768Z,102507.16
2023-05-21T02:40:09.751Z,102498.91
2023-05-21T02:41:11.987Z,102498.25
2023-05-21T02:42:14.278Z,102503.63
2023-05-21T02:43:16.388Z,102500.06
2023-05-21T02:44:19.408Z,102499.22
2023-05-21T02:45:21.396Z,102500.22
2023-05-21T02:46:23.366Z,102499.34
2023-05-21T02:47:27.121Z,102499.34
2023-05-21T02:48:29.015Z,102496.66
2023-05-21T02:49:30.884Z,102496.66
2023-05-21T02:50:32.719Z,102505.75
2023-05-21T02:51:34.848Z,102501.22
2023-05-21T02:52:36.711Z,102503.03
2023-05-21T02:53:39.328Z,102498.63
2023-05-21T02:54:41.220Z,102503.03
2023-05-21T02:55:43.707Z,102503.31
2023-05-21T02:56:45.667Z,102509.44
2023-05-21T02:57:48.156Z,102495.78
2023-05-21T02:58:50.103Z,102500.63
2023-05-21T02:59:51.939Z,102507.00
2023-05-21T03:00:53.966Z,102504.31
2023-05-21T03:01:56.126Z,102500.03
2023-05-21T03:02:58.092Z,102506.84
2023-05-21T03:04:00.095Z,102508.72
2023-05-21T03:05:02.869Z,102499.91
2023-05-21T03:06:04.828Z,102503.31
2023-05-21T03:07:06.669Z,102509.69
2023-05-21T03:08:08.553Z,102502.72
2023-05-21T03:09:11.014Z,102506.13
2023-05-21T03:10:12.917Z,102497.22
2023-05-21T03:11:14.984Z,102502.59
2023-05-21T03:12:16.879Z,102502.88
2023-05-21T03:13:18.852Z,102505.28
2023-05-21T03:14:20.736Z,102491.81
2023-05-21T03:15:24.259Z,102471.34
2023-05-21T03:16:26.336Z,102498.91
2023-05-21T03:17:28.266Z,102498.03
2023-05-21T03:18:30.107Z,102497.22
2023-05-21T03:19:36.455Z,102490.09
2023-05-21T03:20:44.529Z,102496.94
2023-05-21T03:21:46.846Z,102499.63
2023-05-21T03:22:49.969Z,102500.63
2023-05-21T03:23:53.161Z,102497.22
2023-05-21T03:24:55.149Z,102498.03
2023-05-21T03:25:57.086Z,102497.94
2023-05-21T03:27:03.193Z,102499.47
2023-05-21T03:28:05.185Z,102501.34
2023-05-21T03:29:21.993Z,102496.66
2023-05-21T03:30:23.869Z,102493.25
2023-05-21T03:31:48.464Z,102502.50
2023-05-21T03:32:51.459Z,102491.25
2023-05-21T03:33:53.977Z,102486.75
2023-05-21T03:35:02.633Z,102496.66
2023-05-21T03:36:04.779Z,102491.41
2023-05-21T03:37:11.103Z,102495.81
2023-05-21T03:38:13.125Z,102492.25
2023-05-21T03:39:15.537Z,102484.31
2023-05-21T03:40:17.533Z,102489.56
2023-05-21T03:41:19.657Z,102494.94
2023-05-21T03:42:25.830Z,102477.47
2023-05-21T03:43:29.841Z,102490.28
2023-05-21T03:44:32.627Z,102493.97
2023-05-21T03:46:06.972Z,102487.63
2023-05-21T03:47:15.010Z,102488.59
2023-05-21T03:48:18.144Z,102485.31
2023-05-21T03:49:20.928Z,102481.19
2023-05-21T03:50:25.232Z,102486.31
2023-05-21T03:51:27.663Z,102489.00
2023-05-21T03:52:29.818Z,102468.25
2023-05-21T03:53:33.984Z,102491.00
2023-05-21T03:54:36.093Z,102484.47
2023-05-21T03:55:41.489Z,102488.00
2023-05-21T03:56:43.344Z,102485.31
2023-05-21T03:57:45.279Z,102483.59
2023-05-21T03:58:47.360Z,102485.31
2023-05-21T03:59:49.407Z,102475.41
2023-05-21T04:00:51.366Z,102477.22
2023-05-21T04:01:53.193Z,102482.63
2023-05-21T04:02:55.390Z,102476.22
2023-05-21T04:03:57.517Z,102476.22
2023-05-21T04:05:00.666Z,102473.41
2023-05-21T04:06:03.843Z,102469.00
2023-05-21T04:07:05.715Z,102475.25
2023-05-21T04:08:07.558Z,102473.69
2023-05-21T04:09:09.442Z,102478.81
2023-05-21T04:10:11.264Z,102478.81
2023-05-21T04:11:13.126Z,102471.84
2023-05-21T04:12:15.036Z,102463.31
2023-05-21T04:13:16.893Z,102476.81
2023-05-21T04:14:18.813Z,102482.06
2023-05-21T04:15:20.792Z,102466.31
2023-05-21T04:16:24.663Z,102483.66
2023-05-21T04:17:28.636Z,102480.78
2023-05-21T04:18:31.106Z,102480.78
2023-05-21T04:19:33.310Z,102477.09
2023-05-21T04:20:35.969Z,102476.16
2023-05-21T04:21:38.016Z,102473.44
2023-05-21T04:22:40.714Z,102481.38
2023-05-21T04:23:43.871Z,102476.88
2023-05-21T04:24:55.975Z,102480.00
2023-05-21T04:26:04.854Z,102466.50
2023-05-21T04:27:07.004Z,102470.91
2023-05-21T04:28:08.909Z,102465.50
2023-05-21T04:29:11.744Z,102470.03
2023-05-21T04:30:14.070Z,102463.22
2023-05-21T04:31:18.431Z,102469.03
2023-05-21T04:32:20.518Z,102468.06
2023-05-21T04:33:23.082Z,102467.22
2023-05-21T04:34:24.938Z,102468.06
2023-05-21T04:35:27.280Z,102479.72
2023-05-21T04:36:29.098Z,102471.63
2023-05-21T04:37:35.215Z,102471.63
2023-05-21T04:38:38.355Z,102475.03
2023-05-21T04:39:41.211Z,102473.31
2023-05-21T04:40:43.603Z,102472.34
2023-05-21T04:41:46.678Z,102469.63
2023-05-21T04:42:50.837Z,102466.94
2023-05-21T04:43:55.429Z,102471.22
2023-05-21T04:45:00.933Z,102468.50
2023-05-21T04:46:06.079Z,102468.50
2023-05-21T04:47:10.451Z,102471.09
2023-05-21T04:48:12.755Z,102468.63
2023-05-21T04:49:15.430Z,102465.81
2023-05-21T04:50:17.633Z,102468.50
2023-05-21T04:51:19.474Z,102452.72
2023-05-21T04:52:21.296Z,102472.22
2023-05-21T04:53:24.005Z,102462.28
2023-05-21T04:54:26.181Z,102457.59
2023-05-21T04:55:28.996Z,102476.63
2023-05-21T04:56:32.047Z,102477.47
2023-05-21T04:57:33.960Z,102468.38
2023-05-21T04:58:35.887Z,102467.53
2023-05-21T04:59:37.982Z,102464.97
2023-05-21T05:00:40.345Z,102467.53
2023-05-21T05:01:44.038Z,102473.78
2023-05-21T05:02:46.433Z,102469.22
2023-05-21T05:03:48.486Z,102466.06
2023-05-21T05:04:50.425Z,102473.78
2023-05-21T05:05:52.851Z,102472.09
2023-05-21T05:06:55.855Z,102472.78
2023-05-21T05:07:58.317Z,102470.09
2023-05-21T05:09:00.749Z,102473.78
2023-05-21T05:10:02.698Z,102473.78
2023-05-21T05:11:06.482Z,102475.50
2023-05-21T05:12:08.567Z,102472.91
2023-05-21T05:13:10.677Z,102470.09
2023-05-21T05:14:12.709Z,102471.09
2023-05-21T05:15:17.037Z,102465.53
2023-05-21T05:16:25.784Z,102463.25
2023-05-21T05:17:30.852Z,102470.66
2023-05-21T05:18:34.228Z,102468.09
2023-05-21T05:19:36.718Z,102467.25
2023-05-21T05:20:38.661Z,102475.50
2023-05-21T05:21:40.521Z,102476.50
2023-05-21T05:22:42.461Z,102476.31
2023-05-21T05:23:44.447Z,102472.22
2023-05-21T05:24:46.353Z,102474.63
2023-05-21T05:25:48.969Z,102475.50
2023-05-21T05:26:50.949Z,102471.09
2023-05-21T05:27:52.891Z,102464.81
2023-05-21T05:28:54.759Z,102467.53
2023-05-21T05:29:56.574Z,102467.53
2023-05-21T05:30:58.554Z,102472.09
2023-05-21T05:32:01.574Z,102469.38
2023-05-21T05:33:03.526Z,102465.69
2023-05-21T05:34:05.753Z,102465.69
2023-05-21T05:35:08.176Z,102470.22
2023-05-21T05:36:10.080Z,102465.69
2023-05-21T05:37:12.430Z,102465.81
2023-05-21T05:38:14.422Z,102465.69
2023-05-21T05:39:17.232Z,102465.69
2023-05-21T05:40:20.522Z,102460.41
2023-05-21T05:41:22.818Z,102468.63
2023-05-21T05:42:25.534Z,102468.50
2023-05-21T05:43:28.072Z,102466.69
2023-05-21T05:44:31.333Z,102465.81
2023-05-21T05:45:34.172Z,102463.13
2023-05-21T05:46:37.960Z,102461.28
2023-05-21T05:47:40.176Z,102461.28
2023-05-21T05:48:42.024Z,102458.72
2023-05-21T05:49:44.218Z,102468.50
2023-05-21T05:50:46.654Z,102459.59
2023-05-21T05:51:49.203Z,102465.81
2023-05-21T05:52:51.579Z,102456.88
2023-05-21T05:53:53.404Z,102446.91
2023-05-21T05:54:55.490Z,102459.59
2023-05-21T05:55:57.333Z,102452.44
2023-05-21T05:56:59.162Z,102461.28
2023-05-21T05:58:02.209Z,102464.97
2023-05-21T05:59:04.233Z,102458.72
2023-05-21T06:00:10.635Z,102451.50
2023-05-21T06:01:19.117Z,102457.59
2023-05-21T06:02:21.117Z,102463.00
2023-05-21T06:03:23.110Z,102457.72
2023-05-21T06:04:30.136Z,102455.88
2023-05-21T06:05:32.552Z,102452.44
2023-05-21T06:06:34.908Z,102454.19
2023-05-21T06:07:40.714Z,102454.28
2023-05-21T06:08:42.697Z,102454.91
2023-05-21T06:09:44.597Z,102457.59
2023-05-21T06:10:46.711Z,102450.75
2023-05-21T06:11:50.050Z,102453.91
2023-05-21T06:12:51.988Z,102456.59
2023-05-21T06:13:53.906Z,102461.72
2023-05-21T06:14:56.744Z,102449.94
2023-05-21T06:15:58.624Z,102456.03
2023-05-21T06:17:00.513Z,102456.75
2023-05-21T06:18:02.968Z,102459.16
2023-05-21T06:19:05.000Z,102455.34
2023-05-21T06:20:09.245Z,102449.09
2023-05-21T06:21:11.536Z,102456.63
2023-05-21T06:22:13.985Z,102456.31
2023-05-21T06:23:16.096Z,102443.09
2023-05-21T06:24:21.228Z,102451.38
2023-05-21T06:25:23.206Z,102450.22
2023-05-21T06:26:25.083Z,102436.03
2023-05-21T06:27:27.689Z,102449.66
2023-05-21T06:28:29.583Z,102443.97
2023-05-21T06:29:31.479Z,102434.31
2023-05-21T06:30:35.515Z,102449.50
2023-05-21T06:31:37.431Z,102450.09
2023-05-21T06:32:39.549Z,102444.56
2023-05-21T06:33:41.577Z,102446.97
2023-05-21T06:34:43.493Z,102449.22
2023-05-21T06:35:45.410Z,102454.50
2023-05-21T06:36:48.409Z,102449.63
2023-05-21T06:37:50.460Z,102453.91
2023-05-21T06:38:52.285Z,102454.53
2023-05-21T06:39:54.286Z,102449.81
2023-05-21T06:40:58.502Z,102446.84
2023-05-21T06:42:29.582Z,102452.78
2023-05-21T06:43:51.560Z,102455.88
2023-05-21T06:45:12.346Z,102448.19
2023-05-21T06:46:18.123Z,102451.19
2023-05-21T06:47:21.026Z,102455.59
2023-05-21T06:48:23.180Z,102456.59
2023-05-21T06:49:26.604Z,102439.09
2023-05-21T06:50:28.518Z,102456.28
2023-05-21T06:51:31.271Z,102453.47
2023-05-21T06:52:33.279Z,102453.28
2023-05-21T06:53:36.848Z,102445.91
2023-05-21T06:54:38.774Z,102456.69
2023-05-21T06:55:45.005Z,102453.00
2023-05-21T06:57:09.852Z,102453.69
2023-05-21T06:58:12.044Z,102456.56
2023-05-21T06:59:14.077Z,102452.16
2023-05-21T07:00:16.083Z,102455.69
2023-05-21T07:01:18.186Z,102445.75
2023-05-21T07:02:20.934Z,102448.28
2023-05-21T07:03:23.353Z,102456.38
2023-05-21T07:04:25.395Z,102453.56
2023-05-21T07:05:27.231Z,102453.56
2023-05-21T07:06:29.936Z,102451.56
2023-05-21T07:07:34.886Z,102451.56
2023-05-21T07:08:36.814Z,102454.09
2023-05-21T07:09:38.945Z,102458.38
2023-05-21T07:10:42.584Z,102452.09
2023-05-21T07:11:44.622Z,102455.66
2023-05-21T07:12:48.000Z,102441.16
2023-05-21T07:13:50.412Z,102460.06
2023-05-21T07:14:52.353Z,102452.78
2023-05-21T07:15:54.199Z,102456.38
2023-05-21T07:16:56.196Z,102421.97
2023-05-21T07:17:58.164Z,102452.66
2023-05-21T07:19:00.055Z,102453.50
2023-05-21T07:20:01.944Z,102446.25
2023-05-21T07:21:04.672Z,102450.66
2023-05-21T07:22:06.796Z,102451.50
2023-05-21T07:23:08.706Z,102455.19
2023-05-21T07:24:10.683Z,102449.66
2023-05-21T07:25:14.899Z,102454.06
2023-05-21T07:26:16.853Z,102449.66
2023-05-21T07:28:26.825Z,102452.94
2023-05-21T07:29:29.450Z,102442.84
2023-05-21T07:30:31.284Z,102449.09
2023-05-21T07:31:33.542Z,102457.47
2023-05-21T07:32:36.103Z,102455.06
2023-05-21T07:33:37.967Z,102462.00
2023-05-21T07:34:39.910Z,102464.59
2023-05-21T07:35:41.844Z,102468.28
2023-05-21T07:36:43.886Z,102464.59
2023-05-21T07:37:47.957Z,102437.34
2023-05-21T07:38:49.889Z,102459.19
2023-05-21T07:39:52.210Z,102454.63
2023-05-21T07:40:54.614Z,102458.19
2023-05-21T07:41:56.546Z,102455.47
2023-05-21T07:42:58.489Z,102450.94
2023-05-21T07:44:04.207Z,102458.88
2023-05-21T07:45:09.241Z,102456.16
2023-05-21T07:46:15.814Z,102456.06
2023-05-21T07:47:18.974Z,102450.75
2023-05-21T07:48:20.835Z,102460.63
2023-05-21T07:49:30.255Z,102460.31
2023-05-21T07:50:33.219Z,102455.91
2023-05-21T07:51:35.214Z,102457.91
2023-05-21T07:52:37.903Z,102455.19
2023-05-21T07:53:40.778Z,102463.19
2023-05-21T07:54:45.926Z,102457.78
2023-05-21T07:55:48.184Z,102462.31
2023-05-21T07:56:53.311Z,102445.97
2023-05-21T07:58:20.263Z,102456.31
2023-05-21T07:59:23.242Z,102449.91
2023-05-21T08:00:25.205Z,102434.44
2023-05-21T08:01:30.849Z,102432.69
2023-05-21T08:02:33.401Z,102444.94
2023-05-21T08:03:37.278Z,102440.38
2023-05-21T08:04:41.177Z,102438.69
2023-05-21T08:05:50.835Z,102441.38
2023-05-21T08:06:53.810Z,102442.38
2023-05-21T08:07:55.682Z,102442.09
2023-05-21T08:08:58.012Z,102440.38
2023-05-21T08:10:00.988Z,102432.00
2023-05-21T08:11:04.370Z,102442.94
2023-05-21T08:12:06.783Z,102444.78
2023-05-21T08:13:11.740Z,102447.50
2023-05-21T08:14:14.129Z,102450.91
2023-05-21T08:15:16.239Z,102449.19
2023-05-21T08:16:21.481Z,102452.59
2023-05-21T08:17:23.435Z,102452.59
2023-05-21T08:18:25.496Z,102451.75
2023-05-21T08:19:30.254Z,102450.59
2023-05-21T08:20:33.500Z,102450.75
2023-05-21T08:21:36.838Z,102448.75
2023-05-21T08:22:38.910Z,102451.28
2023-05-21T08:23:41.056Z,102439.78
2023-05-21T08:24:42.930Z,102444.06
2023-05-21T08:25:45.216Z,102445.75
2023-05-21T08:26:47.565Z,102444.75
2023-05-21T08:27:51.559Z,102443.75
2023-05-21T08:28:54.632Z,102444.88
2023-05-21T08:29:56.691Z,102449.72
2023-05-21T08:30:58.643Z,102437.47
2023-05-21T08:32:01.028Z,102444.31
2023-05-21T08:33:03.025Z,102440.59
2023-05-21T08:34:07.438Z,102442.31
2023-05-21T08:35:26.074Z,102448.81
2023-05-21T08:36:36.710Z,102445.09
2023-05-21T08:37:43.741Z,102450.53
2023-05-21T08:38:53.755Z,102446.81
2023-05-21T08:40:04.502Z,102435.72
2023-05-21T08:41:13.248Z,102453.91
2023-05-21T08:42:47.945Z,102450.75
2023-05-21T08:43:59.625Z,102453.19
2023-05-21T08:45:05.547Z,102450.59
2023-05-21T08:46:09.801Z,102458.03
2023-05-21T08:47:18.921Z,102451.03
2023-05-21T08:48:23.176Z,102455.47
2023-05-21T08:49:27.512Z,102444.81
2023-05-21T08:50:31.887Z,102446.09
2023-05-21T08:51:38.860Z,102451.91
2023-05-21T08:52:41.630Z,102447.50
2023-05-21T08:53:45.838Z,102448.34
2023-05-21T08:54:53.137Z,102447.34
2023-05-21T08:55:57.249Z,102444.81
2023-05-21T08:57:04.879Z,102442.78
2023-05-21T08:58:06.784Z,102445.63
2023-05-21T08:59:09.016Z,102450.22
2023-05-21T09:00:12.590Z,102451.91
2023-05-21T09:01:14.938Z,102436.81
2023-05-21T09:02:20.145Z,102442.09
2023-05-21T09:03:23.272Z,102443.09
2023-05-21T09:04:27.746Z,102447.66
2023-05-21T09:05:31.334Z,102437.69
2023-05-21T09:06:33.978Z,102445.81
2023-05-21T09:08:01.135Z,102438.78
2023-05-21T09:09:42.045Z,102435.63
2023-05-21T09:10:50.464Z,102436.63
2023-05-21T09:11:52.519Z,102435.94
2023-05-21T09:12:54.400Z,102432.66
2023-05-21T09:13:58.418Z,102432.28
2023-05-21T09:15:27.326Z,102436.78
2023-05-21T09:16:30.661Z,102436.22
2023-05-21T09:17:32.845Z,102431.97
2023-05-21T09:18:47.087Z,102429.09
2023-05-21T09:20:26.613Z,102428.34
2023-05-21T09:21:33.366Z,102425.63
2023-05-21T09:22:50.717Z,102424.25
2023-05-21T09:23:59.767Z,102420.84
2023-05-21T09:25:04.984Z,102420.13
2023-05-21T09:26:12.901Z,102423.84
2023-05-21T09:27:18.358Z,102419.06
2023-05-21T09:28:20.646Z,102402.72
2023-05-21T09:29:22.461Z,102424.16
2023-05-21T09:30:34.934Z,102427.00
2023-05-21T09:31:43.878Z,102425.00
2023-05-21T09:32:54.215Z,102422.28
2023-05-21T09:33:56.287Z,102417.75
2023-05-21T09:35:13.490Z,102418.75
2023-05-21T09:36:15.620Z,102417.56
2023-05-21T09:37:27.034Z,102412.94
2023-05-21T09:38:30.387Z,102416.88
2023-05-21T09:39:32.325Z,102426.00
2023-05-21T09:40:43.342Z,102409.22
2023-05-21T09:41:45.465Z,102401.25
2023-05-21T09:42:50.179Z,102413.63
2023-05-21T09:43:52.230Z,102411.75
2023-05-21T09:44:55.237Z,102410.94
2023-05-21T09:46:00.472Z,102405.13
2023-05-21T09:47:05.918Z,102401.41
2023-05-21T09:48:07.794Z,102410.06
2023-05-21T09:49:26.545Z,102407.06
2023-05-21T09:50:28.890Z,102410.63
2023-05-21T09:51:32.124Z,102402.13
2023-05-21T09:52:36.875Z,102409.06
2023-05-21T09:53:57.875Z,102410.47
2023-05-21T09:54:59.852Z,102412.03
2023-05-21T09:56:03.738Z,102417.75
2023-05-21T09:57:05.910Z,102412.31
2023-05-21T09:58:08.987Z,102411.63
2023-05-21T09:59:11.025Z,102409.75
2023-05-21T10:00:28.353Z,102412.47
2023-05-21T10:01:37.566Z,102410.31
2023-05-21T10:02:44.747Z,102410.31
2023-05-21T10:03:52.117Z,102409.31
2023-05-21T10:04:54.762Z,102415.44
2023-05-21T10:05:58.677Z,102404.91
2023-05-21T10:07:00.997Z,102411.16
2023-05-21T10:08:04.811Z,102404.03
2023-05-21T10:09:10.714Z,102404.66
2023-05-21T10:10:17.580Z,102412.03
2023-05-21T10:11:22.899Z,102401.91
2023-05-21T10:12:25.594Z,102411.84
2023-05-21T10:13:28.580Z,102410.00
2023-05-21T10:14:33.247Z,102407.44
2023-05-21T10:15:41.269Z,102403.91
2023-05-21T10:16:44.571Z,102400.03
2023-05-21T10:17:48.637Z,102405.44
2023-05-21T10:18:51.335Z,102399.50
2023-05-21T10:19:56.018Z,102396.41
2023-05-21T10:20:59.048Z,102399.31
2023-05-21T10:22:01.774Z,102404.59
2023-05-21T10:23:04.349Z,102404.59
2023-05-21T10:24:07.505Z,102407.44
2023-05-21T10:25:10.348Z,102402.91
2023-05-21T10:26:13.077Z,102403.72
2023-05-21T10:27:15.150Z,102394.09
2023-05-21T10:28:21.107Z,102402.91
2023-05-21T10:29:23.495Z,102407.16
2023-05-21T10:30:25.705Z,102382.56
2023-05-21T10:31:28.628Z,102396.47
2023-05-21T10:32:31.853Z,102397.50
2023-05-21T10:33:35.885Z,102392.91
2023-05-21T10:34:38.404Z,102393.63
2023-05-21T10:35:40.816Z,102397.50
2023-05-21T10:36:44.505Z,102387.50
2023-05-21T10:37:46.738Z,102396.47
2023-05-21T10:38:48.765Z,102393.78
2023-05-21T10:39:50.735Z,102388.38
2023-05-21T10:40:54.107Z,102398.19
2023-05-21T10:42:33.250Z,102383.97
2023-05-21T10:43:48.668Z,102390.84
2023-05-21T10:45:18.336Z,102382.59
2023-05-21T10:46:46.269Z,102388.84
2023-05-21T10:48:13.959Z,102382.97
2023-05-21T10:49:30.760Z,102375.00
2023-05-21T10:50:45.207Z,102379.72
2023-05-21T10:52:20.874Z,102378.00
2023-05-21T10:53:54.678Z,102376.00
2023-05-21T10:55:17.579Z,102372.28
2023-05-21T10:56:29.274Z,102378.88
2023-05-21T10:57:46.747Z,102376.63
2023-05-21T10:59:01.361Z,102373.91
2023-05-21T11:00:06.202Z,102382.91
2023-05-21T11:01:08.422Z,102369.81
2023-05-21T11:02:13.087Z,102377.84
2023-05-21T11:03:15.683Z,102377.41
2023-05-21T11:04:22.534Z,102375.84
2023-05-21T11:05:52.777Z,102372.06
2023-05-21T11:06:56.378Z,102380.63
2023-05-21T11:07:58.749Z,102383.34
2023-05-21T11:09:14.016Z,102377.09
2023-05-21T11:10:35.689Z,102376.78
2023-05-21T11:11:52.305Z,102376.09
2023-05-21T11:13:13.146Z,102376.47
2023-05-21T11:15:04.449Z,102373.16
2023-05-21T11:16:08.003Z,102377.69
2023-05-21T11:17:13.652Z,102376.63
2023-05-21T11:18:15.973Z,102384.03
2023-05-21T11:19:19.071Z,102375.38
2023-05-21T11:20:22.830Z,102364.25
2023-05-21T11:21:28.584Z,102375.84
2023-05-21T11:22:30.492Z,102372.00
2023-05-21T11:23:59.010Z,102386.03
2023-05-21T11:25:02.313Z,102382.19
2023-05-21T11:26:06.742Z,102379.78
2023-05-21T11:27:08.946Z,102379.09
2023-05-21T11:28:10.930Z,102387.34
2023-05-21T11:29:12.972Z,102374.13
2023-05-21T11:30:17.249Z,102384.78
2023-05-21T11:31:30.506Z,102375.66
2023-05-21T11:32:32.477Z,102374.97
2023-05-21T11:33:34.320Z,102379.25
2023-05-21T11:34:47.013Z,102375.53
2023-05-21T11:35:54.712Z,102383.50
2023-05-21T11:37:18.438Z,102373.53
2023-05-21T11:38:21.041Z,102369.50
2023-05-21T11:39:25.991Z,102368.72
2023-05-21T11:40:30.202Z,102380.81
2023-05-21T11:42:01.581Z,102378.63
2023-05-21T11:43:04.426Z,102373.91
2023-05-21T11:44:08.938Z,102377.09
2023-05-21T11:45:11.157Z,102378.09
2023-05-21T11:46:14.386Z,102373.81
2023-05-21T11:47:19.884Z,102376.66
2023-05-21T11:48:27.293Z,102369.41
2023-05-21T11:49:31.265Z,102382.66
2023-05-21T11:50:34.839Z,102375.66
2023-05-21T11:51:36.984Z,102380.94
2023-05-21T11:52:39.509Z,102380.09
2023-05-21T11:53:44.329Z,102377.41
2023-05-21T11:54:50.718Z,102380.94
2023-05-21T11:55:57.328Z,102376.22
2023-05-21T11:57:01.049Z,102376.22
2023-05-21T11:58:03.288Z,102388.75
2023-05-21T11:59:05.368Z,102381.63
2023-05-21T12:00:14.259Z,102378.09
2023-05-21T12:01:26.571Z,102363.00
2023-05-21T12:02:33.208Z,102374.91
2023-05-21T12:03:35.673Z,102374.91
2023-05-21T12:04:37.739Z,102374.22
2023-05-21T12:05:47.401Z,102365.16
2023-05-21T12:06:50.757Z,102368.97
2023-05-21T12:07:54.618Z,102372.19
2023-05-21T12:08:58.519Z,102373.22
2023-05-21T12:10:00.999Z,102374.91
2023-05-21T12:11:02.954Z,102370.69
2023-05-21T12:12:06.213Z,102370.69
2023-05-21T12:13:08.074Z,102369.97
2023-05-21T12:14:11.406Z,102372.50
2023-05-21T12:15:13.683Z,102380.50
2023-05-21T12:16:15.712Z,102369.66
2023-05-21T12:17:22.485Z,102377.94
2023-05-21T12:18:26.493Z,102370.69
2023-05-21T12:19:29.046Z,102383.03
2023-05-21T12:20:31.171Z,102376.63